Weather observations for the past three days for
Land O' Lakes, Kings Land O' Lakes Airport
Imperial (Metric)
Date Time (cdt) Wind (mph) Vis. (mi.) Weather Sky Cond. Temperature (ºF) Relative Humidity Wind Chill (°F) Heat Index (°F) Pressure Precipitation (in)
Air Dwpt 6 hour altimeter (in) sea level (mb) 1 hr 3 hr 6 hr
Max. Min.
04 19:15 E 7 10.00 Overcast OVC004 70.2 68.4 94% 30.04 0.0
04 18:55 E 6 10.00 Overcast OVC004 70.7 68.9 76.5 70.7 94% 30.03 0.0
04 18:35 E 6 10.00 Overcast OVC004 71.1 69.1 94% 30.03 0.0
04 18:15 E 5 5.00 Fog/Mist OVC004 70.9 69.8 96% 30.03 0.0
04 17:55 E 8 4.00 Fog/Mist OVC004 71.2 69.6 95% 30.02 0.0
04 17:35 E 6 4.00 Fog/Mist OVC004 72 70.2 94% 30.02 0.0
04 17:15 E 6 10.00 Overcast OVC006 73 70.2 91% 30.01 0.0
04 16:55 NE 5 10.00 Overcast OVC008 73.4 69.8 89% 30 0.0
04 16:35 E 3 10.00 Overcast OVC008 73.6 69.8 88% 30.01 0.0
04 16:15 E 5 10.00 Overcast OVC010 74.5 69.8 85% 30 0.0
04 15:55 E 3 10.00 Overcast OVC012 75.4 69.6 82% 76 30 0.0
04 15:35 E 6 10.00 Overcast OVC012 76.1 69.6 80% 77 30 0.0
04 15:15 E 3 10.00 Overcast OVC014 76.1 69.3 79% 77 29.99 0.0
04 14:55 E 6 10.00 Overcast OVC012 76.3 69.1 78% 78 29.99 0.0
04 14:35 NE 5 10.00 Overcast OVC012 76.3 69.1 78% 78 30 0.0
04 14:15 E 6 10.00 Overcast OVC012 76.1 69.1 79% 77 29.99 0.0
04 13:55 E 5 10.00 Overcast OVC012 76.1 68.9 78% 77 29.99 0.0
04 13:35 Calm 10.00 Overcast OVC010 75.2 68.9 81% 76 29.99 0.0
04 13:15 Calm 10.00 Overcast OVC010 75 68.7 81% 76 30 0.0
04 12:55 Calm 10.00 Overcast OVC010 74.7 68.2 75.2 66.2 80% 29.99 0.0
04 12:35 S 3 10.00 Overcast OVC008 74.3 68.4 82% 29.99 0.0
04 12:15 S 3 10.00 Overcast OVC008 72.5 67.6 85% 30 0.0
04 11:55 SE 3 10.00 Overcast OVC006 72.5 67.6 85% 30 0.0
04 11:35 E 3 10.00 Overcast OVC006 72.3 67.3 84% 30 0.0
04 11:15 SE 5 10.00 Overcast OVC006 70.9 66.9 87% 29.99 0.0
04 10:55 E 5 10.00 Overcast OVC004 70 66.4 88% 29.99 0.0
04 10:35 SE 5 10.00 Overcast OVC004 69.1 66.2 91% 29.99 0.0
04 10:15 SE 8 10.00 Overcast OVC004 68.4 65.7 91% 30 0.0
04 09:55 SE 7 10.00 Overcast OVC004 68 65.3 91% 30 0.0
04 09:35 SE 7 10.00 Overcast OVC004 67.6 65.3 92% 29.99 0.0
04 09:15 SE 5 5.00 Fog/Mist OVC006 66.9 65.3 95% 29.99 0.0
04 08:55 E 7 5.00 Fog/Mist OVC006 66.2 64.9 96% 29.99 0.0
04 08:35 SE 8 5.00 Fog/Mist OVC006 66.4 64.8 95% 29.99 0.0
04 08:15 E 7 7.00 Overcast OVC006 66.6 65.1 95% 29.98 0.0
04 07:55 SE 6 7.00 Overcast OVC006 66.9 65.3 95% 29.97 0.0
04 07:35 SE 5 10.00 Overcast OVC006 67.1 64.9 93% 29.97 0.0
04 07:15 SE 7 10.00 Overcast OVC008 67.6 65.1 92% 29.95 0.0
04 06:55 SE 8 10.00 Overcast OVC008 68 65.5 70.7 68 92% 29.95 0.0
04 06:35 E 7 10.00 Overcast OVC008 68.2 65.7 92% 29.95 0.0
04 06:15 SE 7 10.00 Overcast OVC010 68.9 66.2 91% 29.96 0.0
04 05:55 E 8 10.00 Overcast BKN010 OVC034 69.4 65.8 88% 29.95 0.0
04 05:35 SE 5 10.00 Overcast SCT012 OVC036 70 65.7 86% 29.97 0.0
04 05:15 S 6 10.00 Overcast SCT014 OVC039 70.2 65.3 85% 29.96 0.0
04 04:55 SE 9 10.00 Overcast BKN014 OVC041 70.2 64.4 82% 29.94 0.0
04 04:35 SE 3 10.00 Overcast BKN014 OVC043 70.5 63.7 79% 29.97 0.0
04 04:15 SE 9 10.00 Overcast BKN014 OVC041 70.7 63.1 77% 29.97 0.0
04 03:55 SE 7 10.00 Overcast SCT016 OVC041 70.2 63.5 80% 29.97 0.0
04 03:35 E 6 10.00 Overcast BKN016 OVC043 70 62.8 78% 29.96 0.0
04 03:15 SE 8 10.00 Overcast SCT016 OVC047 70.2 63.5 80% 29.95 0.0
04 02:55 E 8 10.00 Light Rain SCT016 OVC047 70.7 63.9 79% 29.97 0.0
04 02:35 SE 12 10.00 Overcast BKN016 OVC047 70.2 63.5 80% 29.96 0.0
04 02:15 E 10 10.00 Overcast OVC016 70 63.3 80% 29.97 0.0
04 01:55 N 10 3.00 Overcast with Haze BKN016 OVC049 70.2 64.4 82% 30.01 0.0
04 01:35 SE 8 3.00 Overcast with Haze SCT012 OVC049 70 64.4 83% 29.97 0.0
04 01:15 SE 6 3.00 Fog/Mist BKN012 OVC060 70 65.5 86% 29.97 0.0
04 00:55 E 8 2.00 Fog/Mist OVC012 70 66.4 77 70 88% 29.97 0.0
04 00:35 E 5 3.00 Fog/Mist OVC014 70 67.1 91% 29.97 0.0
04 00:15 SE 5 10.00 Light Rain OVC014 70.3 67.1 90% 29.97 0.0
03 23:55 SE 7 10.00 Overcast OVC014 71.1 66.6 86% 29.98 0.0
03 23:35 E 6 10.00 Overcast OVC014 70.9 67.1 88% 30 0.0
03 23:15 SE 5 10.00 Light Drizzle OVC014 70.9 67.1 88% 29.99 0.0
03 22:55 SE 7 10.00 Mostly Cloudy BKN016 71.2 66.7 86% 29.99 0.0
03 22:35 SE 9 10.00 Fair CLR 71.2 66.4 85% 29.99 0.0
03 22:15 SE 6 7.00 Thunderstorm in Vicinity CLR 71.6 66.6 84% 29.98 0.0
03 21:55 SE 3 10.00 Partly Cloudy SCT120 71.6 67.3 86% 29.99 0.0
03 21:35 SE 6 10.00 Mostly Cloudy BKN011 BKN120 71.8 67.5 86% 29.98 0.0
03 21:15 SE 6 10.00 Mostly Cloudy BKN011 BKN090 BKN110 72.5 67.5 84% 29.98 0.0
03 20:55 SE 5 10.00 Partly Cloudy SCT090 SCT110 72.5 67.6 85% 29.98 0.0
03 20:35 SE 5 10.00 Mostly Cloudy SCT075 BKN100 72.9 67.6 84% 29.98 0.0
03 20:15 SE 3 10.00 Mostly Cloudy BKN075 BKN100 73.4 68 83% 29.99 0.0
03 19:55 S 5 10.00 Fair CLR 73.4 68.2 84% 29.99 0.0
03 19:35 S 5 10.00 Partly Cloudy SCT026 74.3 68 81% 29.98 0.0
03 19:15 S 7 10.00 Mostly Cloudy BKN026 75.2 68 78% 76 29.98 0.0
03 18:55 SE 7 10.00 Mostly Cloudy BKN028 77 68 85.5 77 74% 79 29.97 0.0
03 18:35 SE 8 10.00 Overcast OVC030 78.8 67.5 68% 81 29.97 0.0
03 18:15 SE 8 10.00 Mostly Cloudy BKN028 78.8 67.6 69% 81 29.97 0.0
03 17:55 SE 8 10.00 Fair CLR 80.6 68 66% 83 29.96 0.0
03 17:35 SE 9 10.00 Mostly Cloudy SCT029 SCT035 BKN075 81.3 67.8 64% 84 29.97 0.0
03 17:15 SE 6 10.00 Mostly Cloudy SCT035 BKN070 BKN090 82.4 68 62% 85 29.95 0.0
03 16:55 SE 9 10.00 Mostly Cloudy SCT036 BKN060 BKN080 82 67.5 61% 85 29.95 0.0
03 16:35 SE 7 10.00 Mostly Cloudy SCT036 SCT043 BKN060 83.7 67.5 58% 87 29.95 0.0
03 16:15 SE 7 10.00 Overcast BKN036 OVC060 82.6 68.2 62% 86 29.95 0.0
03 15:55 SE 3 10.00 Overcast OVC033 82.4 68.2 62% 85 29.96 0.0
03 15:35 SE 3 10.00 Overcast BKN033 OVC075 83.7 66.7 57% 86 29.97 0.0
03 15:15 SE 8 10.00 Partly Cloudy SCT031 SCT075 84.7 66.9 55% 87 29.96 0.0
03 14:55 SE 7 10.00 Fair CLR 82.2 66.6 59% 85 29.95 0.0
03 14:35 E 6 10.00 Fair CLR 82.6 66.4 58% 85 29.95 0.0
03 14:15 SE 8 10.00 Fair CLR 83.5 66.4 56% 86 29.95 0.0
03 13:55 E 7 10.00 Fair CLR 82.6 66.6 59% 85 29.97 0.0
03 13:35 E 7 10.00 Partly Cloudy SCT025 82.2 66 58% 84 29.98 0.0
03 13:15 SE 7 10.00 Partly Cloudy SCT025 81.5 66.4 60% 84 29.98 0.0
03 12:55 SE 6 10.00 Partly Cloudy SCT050 SCT065 80.6 65.5 80.8 56.3 60% 83 30 0.0
03 12:35 E 6 10.00 Overcast SCT042 BKN050 OVC065 78.4 64.8 63% 80 30 0.0
03 12:15 E 6 10.00 Overcast SCT050 OVC065 76.6 63.3 64% 78 30.01 0.0
03 11:55 E 7 10.00 Overcast BKN050 OVC065 74.8 63 67% 30.01 0.0
03 11:35 E 7 10.00 Overcast SCT017 BKN050 OVC080 73.2 64 73% 30.02 0.0
03 11:15 Calm 10.00 Light Rain SCT017 OVC060 71.4 63.5 76% 30.02 0.0
03 10:55 SE 3 10.00 Overcast BKN065 OVC080 72.5 61.5 69% 30.02 0.0
03 10:35 SE 6 10.00 Mostly Cloudy SCT065 BKN080 BKN100 73.2 61 66% 30.02 0.0
03 10:15 SE 6 10.00 Partly Cloudy SCT065 SCT080 73.8 61.2 65% 30.01 0.0
03 09:55 SE 6 10.00 Partly Cloudy SCT065 SCT090 75.4 61.5 62% 77 30.01 0.0
03 09:35 SE 7 10.00 Partly Cloudy SCT090 75.2 61 61% 77 30 0.0
03 09:15 E 7 10.00 Partly Cloudy SCT090 74.5 60.8 63% 30 0.0
03 08:55 SE 5 10.00 Mostly Cloudy BKN090 71.8 61.3 70% 30.01 0.0
03 08:35 SE 6 10.00 Partly Cloudy SCT090 70.3 61.2 73% 30.01 0.0
03 08:15 SE 5 10.00 Partly Cloudy SCT090 69.6 61.7 76% 30.01 0.0
03 07:55 Calm 10.00 Fair CLR 67.6 62.1 82% 30.01 0.0
03 07:35 Calm 10.00 Fair CLR 61.5 61.5 100% 30.01 0.0
03 07:15 Calm 10.00 Fair CLR 58.3 58.3 100% 30.01 0.0
03 06:55 Calm 2.50 Fog/Mist CLR 56.5 56.5 58.1 54.7 100% 30.01 0.0
03 06:35 Calm 0.50 Fog VV005 54.9 54.9 100% 30 0.0
03 06:15 Calm 5.00 Fog/Mist CLR 54.7 54.7 100% 30 0.0
03 05:55 Calm 7.00 Fair CLR 54.7 54.7 100% 29.99 0.0
03 05:35 Calm 7.00 Fair CLR 55 55 100% 30 0.0
03 05:15 Calm 1.25 Fog/Mist VV007 55.6 55.6 100% 29.99 0.0
03 04:55 Calm 7.00 Fair CLR 55.8 55.8 100% 29.99 0.0
03 04:35 Calm 10.00 Fair CLR 55.9 55.9 100% 29.99 0.0
03 04:15 Calm 7.00 Fair CLR 56.3 56.3 100% 29.99 0.0
03 03:55 Calm 10.00 Fair CLR 56.5 56.5 100% 29.99 0.0
03 03:35 Calm 10.00 Partly Cloudy SCT090 57.2 57.2 100% 29.99 0.0
03 03:15 Calm 10.00 Mostly Cloudy BKN100 57.6 57.6 100% 30 0.0
03 02:55 Calm 10.00 Overcast OVC110 57.7 57.7 100% 29.99 0.0
03 02:35 Calm 10.00 Mostly Cloudy BKN110 57.4 57.4 100% 30 0.0
03 02:15 Calm 10.00 Mostly Cloudy BKN120 56.5 56.5 100% 30 0.0
03 01:55 Calm 10.00 Fair CLR 56.7 56.7 100% 30 0.0
03 01:35 Calm 10.00 Fair CLR 57.4 57.4 100% 30 0.0
03 01:15 Calm 10.00 Fair CLR 57.4 57.4 100% 30 0.0
03 00:55 Calm 10.00 Fair CLR 57.4 57.4 78.8 57.4 100% 30 0.0
03 00:35 Calm 10.00 Fair CLR 58.1 58.1 100% 30 0.0
03 00:15 Calm 10.00 Fair CLR 58.1 58.1 100% 30 0.0
02 23:55 Calm 10.00 Fair CLR 58.8 58.8 100% 30 0.0
02 23:35 Calm 10.00 Fair CLR 59.4 59.2 99% 30 0.0
02 23:15 Calm 10.00 Fair CLR 59.9 59.4 98% 29.99 0.0
02 22:55 Calm 10.00 Fair CLR 60.1 58.8 96% 30 0.0
02 22:35 Calm 10.00 Fair CLR 60.8 59.9 97% 30 0.0
02 22:15 Calm 10.00 Fair CLR 61.5 60.4 96% 29.99 0.0
02 21:55 Calm 10.00 Fair CLR 62.8 60.4 92% 29.99 0.0
02 21:35 Calm 10.00 Fair CLR 63.7 60.6 90% 29.99 0.0
02 21:15 Calm 10.00 Fair CLR 64.8 60.8 87% 29.98 0.0
02 20:55 Calm 10.00 Fair CLR 67.6 60.8 79% 29.98 0.0
02 20:35 NE 3 10.00 Fair CLR 71.8 60.1 67% 29.97 0.0
02 20:15 Calm 10.00 Fair CLR 73.6 60.1 63% 29.97 0.0
02 19:55 N 3 10.00 Fair CLR 74.3 60.1 61% 29.96 0.0
02 19:35 N 6 10.00 Fair CLR 76.1 59.9 57% 78 29.95 0.0
02 19:15 N 7 10.00 Fair CLR 77.5 60.4 56% 79 29.95 0.0
02 18:55 NE 7 10.00 Fair CLR 79 60.8 86.9 79 54% 80 29.95 0.0
02 18:35 NE 10 G 16 10.00 Fair CLR 80.8 60.8 51% 82 29.95 0.0
02 18:15 N 9 10.00 Fair CLR 83.5 60.6 46% 84 29.94 0.0
02 17:55 W 3 10.00 Fair CLR 85.5 58.3 40% 85 29.93 0.0
02 17:35 NW 3 10.00 Partly Cloudy SCT120 86 56.7 37% 85 29.93 0.0
02 17:15 Calm 10.00 Partly Cloudy SCT120 85.5 57.6 39% 85 29.94 0.0
02 16:55 Calm 10.00 Fair CLR 85.8 57.4 38% 85 29.93 0.0
02 16:35 Calm 10.00 Partly Cloudy SCT120 85.1 56.5 38% 84 29.94 0.0
02 16:15 W 5 10.00 Fair CLR 86 56.8 37% 85 29.94 0.0
02 15:55 NW 6 10.00 Fair CLR 85.8 56.8 37% 85 29.94 0.0
02 15:35 NW 5 10.00 Fair CLR 85.8 56.3 37% 85 29.94 0.0
02 15:15 NW 5 10.00 Fair CLR 85.6 56.5 37% 84 29.94 0.0
02 14:55 Calm 10.00 Fair CLR 85.1 56.1 37% 84 29.95 0.0
02 14:35 W 5 10.00 Fair CLR 84.6 56.3 38% 84 29.95 0.0
02 14:15 SE 3 10.00 Fair CLR 84.7 56.7 38% 84 29.95 0.0
02 13:55 NW 7 10.00 Fair CLR 83.8 57.9 41% 83 29.97 0.0
02 13:35 W 9 10.00 Fair CLR 83.8 57.7 41% 83 29.97 0.0
02 13:15 W 5 10.00 Fair CLR 82.8 57 42% 82 29.97 0.0
02 12:55 W 6 10.00 Fair CLR 82.9 59 82.9 62.1 44% 83 29.97 0.0
02 12:35 NW 6 10.00 Fair CLR 81.9 59.2 46% 82 29.97 0.0
02 12:15 W 6 10.00 Fair CLR 81.1 60.1 49% 82 29.96 0.0
02 11:55 W 5 10.00 Fair CLR 80.2 59.4 49% 81 29.97 0.0
02 11:35 W 5 10.00 Fair CLR 79.5 61.2 54% 81 29.97 0.0
02 11:15 W 5 10.00 Fair CLR 78.6 61.9 57% 80 29.97 0.0
02 10:55 W 5 10.00 Fair CLR 78.1 62.8 59% 80 29.98 0.0
02 10:35 SW 3 10.00 Fair CLR 77.2 63.7 63% 79 29.98 0.0
02 10:15 W 3 10.00 Fair CLR 75.7 63.3 65% 78 29.98 0.0
02 09:55 SW 5 10.00 Fair CLR 75.2 63.5 67% 77 29.99 0.0
02 09:35 W 3 10.00 Fair CLR 72.9 63.7 73% 29.99 0.0
02 09:15 SW 3 10.00 Fair CLR 70.7 64 80% 29.99 0.0
02 08:55 SW 5 10.00 Partly Cloudy SCT110 68 63.7 86% 30 0.0
02 08:35 SW 3 10.00 Partly Cloudy SCT110 66.9 63.9 90% 29.99 0.0
02 08:15 Calm 10.00 Partly Cloudy SCT110 65.5 62.8 91% 29.97 0.0
02 07:55 Calm 10.00 Partly Cloudy SCT110 64.4 62.8 95% 29.98 0.0
02 07:35 Calm 10.00 Fair CLR 63.3 62.6 98% 29.98 0.0
02 07:15 Calm 10.00 Mostly Cloudy BKN120 62.6 62.6 100% 29.97 0.0
02 06:35 Calm 10.00 Mostly Cloudy BKN110 62.1 62.1 100% 29.97 0.0
02 06:15 Calm 10.00 Mostly Cloudy BKN110 62.2 62.2 100% 29.97 0.0
02 05:55 Calm 10.00 Light Rain BKN090 OVC110 63.3 61.3 93% 30 0.0
02 05:35 Calm 10.00 Light Rain OVC100 63.9 60.6 89% 30.01 0.0
02 05:15 Calm 10.00 Light Rain BKN100 BKN120 63.5 60.1 89% 30 0.0
02 04:55 Calm 10.00 Light Rain SCT100 SCT120 61 60.1 97% 30 0.0
02 04:35 Calm 10.00 Partly Cloudy SCT120 61 59.9 96% 29.98 0.0
02 04:15 Calm 10.00 Mostly Cloudy BKN120 60.3 59.7 98% 29.98 0.0
02 03:55 Calm 10.00 Partly Cloudy SCT110 60.6 59.5 96% 29.98 0.0
02 03:35 Calm 10.00 Mostly Cloudy BKN110 61.3 59.4 93% 29.97 0.0
02 03:15 Calm 10.00 Mostly Cloudy BKN120 60.8 59.7 96% 29.97 0.0
02 02:55 Calm 10.00 Partly Cloudy SCT120 60.3 59.2 96% 29.97 0.0
02 02:35 Calm 10.00 Partly Cloudy SCT120 59.5 59 98% 29.97 0.0
02 02:15 Calm 10.00 Fair CLR 59.4 58.5 97% 29.96 0.0
02 01:55 Calm 10.00 Fair CLR 59.9 58.3 94% 29.97 0.0
02 01:35 Calm 10.00 Fair CLR 59.7 58.1 94% 29.97 0.0
02 01:15 Calm 10.00 Fair CLR 58.5 58.1 99% 29.98 0.0
02 00:55 Calm 10.00 Fair CLR 59.2 57.9 81.5 57.6 96% 29.98 0.0
02 00:35 Calm 10.00 Fair CLR 58.8 57.7 96% 29.97 0.0
02 00:15 Calm 10.00 Fair CLR 57.6 56.5 96% 29.98 0.0
01 23:55 Calm 10.00 Fair CLR 58.1 57.2 97% 29.98 0.0
01 23:35 Calm 10.00 Fair CLR 58.6 57.2 95% 29.97 0.0
01 23:15 Calm 10.00 Fair CLR 58.3 57.4 97% 29.97 0.0
01 22:55 Calm 10.00 Fair CLR 59.7 58.1 94% 29.97 0.0
01 22:35 Calm 10.00 Fair CLR 60.3 57.6 91% 29.97 0.0
01 22:15 Calm 10.00 Fair CLR 60.8 58.1 91% 29.98 0.0
01 21:55 Calm 10.00 Fair CLR 61.2 58.5 91% 29.97 0.0
01 21:35 Calm 10.00 Fair CLR 61.7 58.6 90% 29.97 0.0
01 21:15 Calm 10.00 Fair CLR 63.9 58.1 82% 29.97 0.0
01 20:55 Calm 10.00 Fair CLR 64.4 59 83% 29.95 0.0
01 20:35 Calm 10.00 Fair CLR 66.7 59 76% 29.95 0.0
01 20:15 Calm 10.00 Fair CLR 67.8 59.9 76% 29.95 0.0
01 19:55 Calm 10.00 Fair CLR 70.3 58.8 67% 29.94 0.0
Date Time (cdt) Wind (mph) Vis. (mi.) Weather Sky Cond. Air Dwpt Max. Min. Relative Humidity Wind Chill (°F) Heat Index (°F) altimeter (in) sea level (mb) 1 hr 3 hr 6 hr
6 hour
Temperature (ºF) Pressure Precipitation (in)